createdAt,value
2017-08-30T00:02:11.168Z,100560.45
2017-08-30T00:04:46.079Z,100561.40
2017-08-30T00:07:20.792Z,100562.02
2017-08-30T00:09:55.626Z,100563.05
2017-08-30T00:12:30.343Z,100561.12
2017-08-30T00:15:04.708Z,100551.43
2017-08-30T00:17:39.434Z,100551.73
2017-08-30T00:20:14.464Z,100547.56
2017-08-30T00:22:49.583Z,100532.30
2017-08-30T00:25:35.707Z,100537.12
2017-08-30T00:28:11.106Z,100536.95
2017-08-30T00:30:45.919Z,100538.85
2017-08-30T00:33:21.042Z,100545.39
2017-08-30T00:35:56.062Z,100546.73
2017-08-30T00:38:31.180Z,100547.89
2017-08-30T00:41:05.532Z,100550.47
2017-08-30T00:43:41.040Z,100552.55
2017-08-30T00:46:16.079Z,100549.59
2017-08-30T00:48:50.571Z,100548.53
2017-08-30T00:51:24.647Z,100546.48
2017-08-30T00:53:59.047Z,100543.95
2017-08-30T00:56:34.266Z,100536.20
2017-08-30T00:59:09.018Z,100525.84
2017-08-30T01:01:44.108Z,100523.44
2017-08-30T01:04:18.968Z,100515.66
2017-08-30T01:06:53.844Z,100514.80
2017-08-30T01:09:28.578Z,100521.20
2017-08-30T01:12:03.590Z,100527.78
2017-08-30T01:14:38.406Z,100536.87
2017-08-30T01:17:13.208Z,100534.53
2017-08-30T01:19:48.040Z,100530.19
2017-08-30T01:22:22.890Z,100523.81
2017-08-30T01:24:57.695Z,100518.56
2017-08-30T01:27:32.444Z,100516.29
2017-08-30T01:30:07.519Z,100506.57
2017-08-30T01:32:42.344Z,100499.52
2017-08-30T01:35:17.183Z,100497.32
2017-08-30T01:37:51.803Z,100498.69
2017-08-30T01:40:26.634Z,100493.41
2017-08-30T01:43:01.367Z,100489.67
2017-08-30T01:45:36.691Z,100486.80
2017-08-30T01:48:11.617Z,100480.36
2017-08-30T01:50:46.342Z,100481.23
2017-08-30T01:53:21.199Z,100475.05
2017-08-30T01:55:56.514Z,100471.81
2017-08-30T01:58:33.146Z,100478.19
2017-08-30T02:01:07.948Z,100471.94
2017-08-30T02:03:42.964Z,100471.02
2017-08-30T02:06:17.808Z,100465.11
2017-08-30T02:08:52.856Z,100469.09
2017-08-30T02:11:27.403Z,100470.30
2017-08-30T02:14:02.351Z,100468.66
2017-08-30T02:16:37.206Z,100464.37
2017-08-30T02:19:12.468Z,100451.02
2017-08-30T02:21:47.376Z,100449.08
2017-08-30T02:24:22.176Z,100442.88
2017-08-30T02:26:57.308Z,100443.61
2017-08-30T02:29:32.075Z,100444.10
2017-08-30T02:32:07.031Z,100445.94
2017-08-30T02:34:41.955Z,100447.97
2017-08-30T02:37:16.815Z,100444.70
2017-08-30T02:39:52.115Z,100445.46
2017-08-30T02:42:26.923Z,100447.52
2017-08-30T02:45:01.799Z,100442.45
2017-08-30T02:47:36.391Z,100444.20
2017-08-30T02:50:11.866Z,100453.02
2017-08-30T02:52:46.592Z,100448.42
2017-08-30T02:55:21.417Z,100443.48
2017-08-30T02:57:56.518Z,100451.60
2017-08-30T03:00:31.519Z,100452.16
2017-08-30T03:03:06.523Z,100451.14
2017-08-30T03:05:41.446Z,100456.66
2017-08-30T03:08:16.916Z,100459.45
2017-08-30T03:10:52.106Z,100453.99
2017-08-30T03:13:27.187Z,100452.47
2017-08-30T03:16:02.014Z,100457.55
2017-08-30T03:18:36.946Z,100456.50
2017-08-30T03:21:12.294Z,100450.91
2017-08-30T03:23:47.203Z,100445.19
2017-08-30T03:26:22.056Z,100450.11
2017-08-30T03:28:57.187Z,100445.67
2017-08-30T03:31:32.110Z,100435.34
2017-08-30T03:34:06.963Z,100434.68
2017-08-30T03:36:41.728Z,100436.25
2017-08-30T03:39:16.532Z,100435.62
2017-08-30T03:41:51.447Z,100442.55
2017-08-30T03:44:26.414Z,100436.58
2017-08-30T03:47:01.231Z,100446.98
2017-08-30T03:49:36.272Z,100448.84
2017-08-30T03:52:11.115Z,100441.20
2017-08-30T03:54:46.019Z,100444.39
2017-08-30T03:57:20.818Z,100441.12
2017-08-30T03:59:55.735Z,100443.56
2017-08-30T04:02:30.530Z,100440.74
2017-08-30T04:05:05.439Z,100441.25
2017-08-30T04:07:40.258Z,100441.89
2017-08-30T04:10:15.000Z,100435.45
2017-08-30T04:12:50.339Z,100433.19
2017-08-30T04:15:24.996Z,100430.17
2017-08-30T04:17:59.952Z,100432.48
2017-08-30T04:20:34.935Z,100428.45
2017-08-30T04:23:09.806Z,100427.95
2017-08-30T04:25:44.786Z,100422.19
2017-08-30T04:28:19.535Z,100421.48
2017-08-30T04:30:54.752Z,100425.89
2017-08-30T04:33:29.923Z,100422.39
2017-08-30T04:36:04.707Z,100427.47
2017-08-30T04:38:39.808Z,100422.37
2017-08-30T04:41:14.722Z,100423.84
2017-08-30T04:43:49.638Z,100421.78
2017-08-30T04:46:24.467Z,100415.89
2017-08-30T04:48:59.276Z,100419.97
2017-08-30T04:51:34.093Z,100414.28
2017-08-30T04:54:08.955Z,100412.34
2017-08-30T04:56:43.894Z,100419.17
2017-08-30T04:59:18.603Z,100434.41
2017-08-30T05:01:53.448Z,100440.40
2017-08-30T05:04:28.601Z,100434.63
2017-08-30T05:07:03.331Z,100431.81
2017-08-30T05:09:38.212Z,100436.33
2017-08-30T05:12:13.054Z,100433.55
2017-08-30T05:14:47.866Z,100434.52
2017-08-30T05:17:22.783Z,100422.27
2017-08-30T05:19:58.086Z,100417.59
2017-08-30T05:22:32.928Z,100419.04
2017-08-30T05:25:07.795Z,100411.70
2017-08-30T05:27:42.608Z,100417.59
2017-08-30T05:30:17.216Z,100419.66
2017-08-30T05:32:52.151Z,100418.61
2017-08-30T05:35:27.414Z,100418.57
2017-08-30T05:38:02.724Z,100429.58
2017-08-30T05:40:37.572Z,100428.48
2017-08-30T05:43:12.550Z,100429.98
2017-08-30T05:45:47.252Z,100423.72
2017-08-30T05:48:22.167Z,100429.05
2017-08-30T05:50:56.891Z,100427.95
2017-08-30T05:53:31.816Z,100431.53
2017-08-30T05:56:06.586Z,100434.50
2017-08-30T05:58:41.352Z,100438.83
2017-08-30T06:01:16.244Z,100437.45
2017-08-30T06:03:50.866Z,100418.68
2017-08-30T06:06:25.722Z,100414.25
2017-08-30T06:09:00.591Z,100409.31
2017-08-30T06:11:35.687Z,100409.37
2017-08-30T06:14:10.865Z,100408.66
2017-08-30T06:16:45.763Z,100409.00
2017-08-30T06:19:20.593Z,100412.39
2017-08-30T06:21:55.529Z,100405.33
2017-08-30T06:24:30.211Z,100401.58
2017-08-30T06:27:04.918Z,100390.21
2017-08-30T06:29:39.647Z,100384.68
2017-08-30T06:32:14.475Z,100379.63
2017-08-30T06:34:49.672Z,100380.94
2017-08-30T06:37:24.061Z,100368.39
2017-08-30T06:39:58.811Z,100365.29
2017-08-30T06:42:33.222Z,100367.17
2017-08-30T06:45:07.675Z,100376.52
2017-08-30T06:47:42.586Z,100397.32
2017-08-30T06:50:17.704Z,100395.14
2017-08-30T06:52:52.444Z,100398.44
2017-08-30T06:55:27.254Z,100394.84
2017-08-30T06:58:01.798Z,100382.16
2017-08-30T07:00:37.059Z,100385.00
2017-08-30T07:03:12.050Z,100389.98
2017-08-30T07:05:46.782Z,100392.65
2017-08-30T07:08:21.940Z,100389.98
2017-08-30T07:10:56.727Z,100399.28
2017-08-30T07:13:31.216Z,100394.52
2017-08-30T07:16:06.035Z,100393.18
2017-08-30T07:18:40.744Z,100389.82
2017-08-30T07:21:15.604Z,100385.36
2017-08-30T07:23:50.402Z,100392.98
2017-08-30T07:26:25.131Z,100385.78
2017-08-30T07:28:59.911Z,100378.47
2017-08-30T07:31:34.940Z,100377.94
2017-08-30T07:34:09.920Z,100363.95
2017-08-30T07:36:44.845Z,100378.39
2017-08-30T07:39:19.574Z,100385.92
2017-08-30T07:41:54.443Z,100387.80
2017-08-30T07:44:29.664Z,100388.84
2017-08-30T07:47:04.554Z,100398.95
2017-08-30T07:49:39.467Z,100404.13
2017-08-30T07:52:14.654Z,100399.06
2017-08-30T07:54:49.902Z,100397.07
2017-08-30T07:57:24.771Z,100396.63
2017-08-30T07:59:59.750Z,100395.17
2017-08-30T08:02:34.907Z,100400.84
2017-08-30T08:05:09.932Z,100392.11
2017-08-30T08:07:44.603Z,100399.61
2017-08-30T08:10:19.560Z,100399.94
2017-08-30T08:12:54.428Z,100403.48
2017-08-30T08:15:29.462Z,100395.78
2017-08-30T08:18:04.511Z,100398.18
2017-08-30T08:20:39.057Z,100386.34
2017-08-30T08:23:13.992Z,100384.62
2017-08-30T08:25:49.103Z,100379.47
2017-08-30T08:28:24.074Z,100382.21
2017-08-30T08:30:58.800Z,100382.40
2017-08-30T08:33:33.740Z,100380.77
2017-08-30T08:36:08.564Z,100379.75
2017-08-30T08:38:43.396Z,100374.89
2017-08-30T08:41:18.090Z,100367.72
2017-08-30T08:43:52.810Z,100375.03
2017-08-30T08:46:27.867Z,100368.45
2017-08-30T08:49:02.503Z,100364.32
2017-08-30T08:51:37.425Z,100359.67
2017-08-30T08:54:12.807Z,100356.23
2017-08-30T08:56:47.810Z,100358.19
2017-08-30T08:59:22.623Z,100355.34
2017-08-30T09:01:57.572Z,100349.91
2017-08-30T09:04:32.896Z,100341.47
2017-08-30T09:07:07.859Z,100337.27
2017-08-30T09:09:42.711Z,100336.14
2017-08-30T09:12:17.745Z,100334.91
2017-08-30T09:14:52.668Z,100342.90
2017-08-30T09:17:27.999Z,100345.48
2017-08-30T09:20:03.223Z,100346.64
2017-08-30T09:22:38.198Z,100345.38
2017-08-30T09:25:13.109Z,100352.44
2017-08-30T09:27:48.007Z,100357.56
2017-08-30T09:30:22.891Z,100360.62
2017-08-30T09:32:57.920Z,100347.94
2017-08-30T09:35:32.748Z,100346.78
2017-08-30T09:38:07.721Z,100343.28
2017-08-30T09:40:42.808Z,100350.05
2017-08-30T09:43:17.618Z,100354.62
2017-08-30T09:45:52.659Z,100356.63
2017-08-30T09:48:27.571Z,100353.77
2017-08-30T09:51:02.367Z,100360.00
2017-08-30T09:53:36.994Z,100363.97
2017-08-30T09:56:11.890Z,100356.94
2017-08-30T09:58:46.907Z,100357.23
2017-08-30T10:01:21.751Z,100358.02
2017-08-30T10:03:56.470Z,100359.05
2017-08-30T10:06:31.658Z,100353.59
2017-08-30T10:09:06.575Z,100347.06
2017-08-30T10:11:41.407Z,100343.92
2017-08-30T10:14:16.436Z,100345.67
2017-08-30T10:16:51.491Z,100351.64
2017-08-30T10:19:26.218Z,100352.95
2017-08-30T10:22:01.116Z,100348.89
2017-08-30T10:24:35.819Z,100353.83
2017-08-30T10:27:11.079Z,100350.71
2017-08-30T10:29:45.818Z,100361.31
2017-08-30T10:32:20.551Z,100357.27
2017-08-30T10:34:55.492Z,100353.98
2017-08-30T10:37:30.516Z,100353.43
2017-08-30T10:40:05.552Z,100346.81
2017-08-30T10:42:40.634Z,100339.53
2017-08-30T10:45:15.724Z,100343.25
2017-08-30T10:47:50.547Z,100343.68
2017-08-30T10:50:25.364Z,100348.73
2017-08-30T10:52:59.803Z,100349.33
2017-08-30T10:55:34.811Z,100349.63
2017-08-30T10:58:09.812Z,100351.28
2017-08-30T11:00:44.624Z,100345.39
2017-08-30T11:03:19.324Z,100340.65
2017-08-30T11:05:54.361Z,100335.81
2017-08-30T11:08:29.320Z,100315.95
2017-08-30T11:11:04.191Z,100309.77
2017-08-30T11:13:38.986Z,100311.29
2017-08-30T11:16:14.310Z,100311.83
2017-08-30T11:18:49.184Z,100304.88
2017-08-30T11:21:24.176Z,100296.25
2017-08-30T11:23:59.481Z,100295.02
2017-08-30T11:26:34.423Z,100288.08
2017-08-30T11:29:09.354Z,100281.23
2017-08-30T11:31:43.858Z,100277.55
2017-08-30T11:34:18.582Z,100265.75
2017-08-30T11:36:53.492Z,100267.75
2017-08-30T11:39:28.403Z,100270.22
2017-08-30T11:42:03.047Z,100273.22
2017-08-30T11:44:38.427Z,100262.02
2017-08-30T11:47:13.396Z,100250.74
2017-08-30T11:49:48.232Z,100243.63
2017-08-30T11:52:23.352Z,100239.08
2017-08-30T11:54:58.632Z,100247.05
2017-08-30T11:57:33.937Z,100234.13
2017-08-30T12:00:09.827Z,100213.11
2017-08-30T12:02:44.916Z,100192.77
2017-08-30T12:05:19.842Z,100173.05
2017-08-30T12:07:54.797Z,100171.09
2017-08-30T12:10:29.638Z,100180.38
2017-08-30T12:13:04.504Z,100171.03
2017-08-30T12:15:39.403Z,100166.67
2017-08-30T12:18:14.440Z,100165.77
2017-08-30T12:20:49.215Z,100162.67
2017-08-30T12:23:24.264Z,100161.44
2017-08-30T12:25:58.967Z,100161.74
2017-08-30T12:28:34.307Z,100154.23
2017-08-30T12:31:09.408Z,100150.20
2017-08-30T12:33:44.655Z,100139.08
2017-08-30T12:36:19.290Z,100143.78
2017-08-30T12:38:59.779Z,100141.30
2017-08-30T12:41:34.691Z,100148.88
2017-08-30T12:44:09.646Z,100149.58
2017-08-30T12:46:44.694Z,100162.91
2017-08-30T12:49:19.699Z,100161.27
2017-08-30T12:51:54.631Z,100158.22
2017-08-30T12:54:29.394Z,100158.61
2017-08-30T12:57:04.317Z,100163.89
2017-08-30T12:59:39.385Z,100162.37
2017-08-30T13:02:14.546Z,100167.08
2017-08-30T13:04:49.407Z,100173.59
2017-08-30T13:07:24.355Z,100175.78
2017-08-30T13:09:59.540Z,100186.34
2017-08-30T13:12:34.454Z,100190.47
2017-08-30T13:15:09.173Z,100194.78
2017-08-30T13:17:44.016Z,100197.31
2017-08-30T13:20:18.927Z,100197.25
2017-08-30T13:22:53.743Z,100196.19
2017-08-30T13:25:28.730Z,100204.38
2017-08-30T13:28:03.918Z,100197.96
2017-08-30T13:30:38.832Z,100205.02
2017-08-30T13:33:13.820Z,100193.33
2017-08-30T13:35:48.923Z,100191.38
2017-08-30T13:38:23.880Z,100198.80
2017-08-30T13:40:59.086Z,100196.92
2017-08-30T13:43:34.312Z,100196.14
2017-08-30T13:46:09.653Z,100199.28
2017-08-30T13:48:44.697Z,100195.66
2017-08-30T13:51:19.548Z,100182.33
2017-08-30T13:53:54.372Z,100183.48
2017-08-30T13:56:29.305Z,100186.37
2017-08-30T13:59:04.431Z,100179.85
2017-08-30T14:01:39.495Z,100178.96
2017-08-30T14:04:14.316Z,100182.63
2017-08-30T14:06:49.317Z,100177.57
2017-08-30T14:09:24.235Z,100178.91
2017-08-30T14:11:59.102Z,100173.45
2017-08-30T14:14:34.140Z,100170.20
2017-08-30T14:17:08.708Z,100163.84
2017-08-30T14:19:43.435Z,100153.39
2017-08-30T14:22:18.365Z,100145.35
2017-08-30T14:24:53.387Z,100145.44
2017-08-30T14:27:28.382Z,100137.48
2017-08-30T14:30:03.248Z,100127.20
2017-08-30T14:32:39.093Z,100137.79
2017-08-30T14:35:13.935Z,100143.52
2017-08-30T14:37:48.767Z,100149.14
2017-08-30T14:40:23.656Z,100154.39
2017-08-30T14:42:58.532Z,100148.81
2017-08-30T14:45:33.343Z,100140.69
2017-08-30T14:48:08.075Z,100143.33
2017-08-30T14:50:42.966Z,100137.09
2017-08-30T14:53:17.818Z,100145.67
2017-08-30T14:55:52.612Z,100139.13
2017-08-30T14:58:27.224Z,100132.02
2017-08-30T15:01:02.136Z,100130.88
2017-08-30T15:03:36.892Z,100130.46
2017-08-30T15:06:12.782Z,100136.80
2017-08-30T15:08:47.423Z,100124.66
2017-08-30T15:11:22.650Z,100126.10
2017-08-30T15:13:57.596Z,100119.95
2017-08-30T15:16:32.496Z,100111.41
2017-08-30T15:19:07.383Z,100116.19
2017-08-30T15:21:42.443Z,100111.19
2017-08-30T15:24:17.356Z,100108.30
2017-08-30T15:26:52.350Z,100105.48
2017-08-30T15:29:27.290Z,100102.29
2017-08-30T15:32:02.111Z,100101.52
2017-08-30T15:34:36.952Z,100095.48
2017-08-30T15:37:11.815Z,100092.00
2017-08-30T15:39:46.859Z,100094.73
2017-08-30T15:42:21.523Z,100092.06
2017-08-30T15:44:56.367Z,100093.52
2017-08-30T15:47:31.524Z,100095.64
2017-08-30T15:50:06.392Z,100088.11
2017-08-30T15:52:40.966Z,100097.09
2017-08-30T15:55:15.915Z,100106.73
2017-08-30T15:57:50.651Z,100102.61
2017-08-30T16:00:25.506Z,100100.45
2017-08-30T16:03:00.320Z,100095.08
2017-08-30T16:05:35.487Z,100093.97
2017-08-30T16:08:10.398Z,100095.66
2017-08-30T16:10:45.241Z,100095.42
2017-08-30T16:13:20.214Z,100095.52
2017-08-30T16:15:55.159Z,100092.28
2017-08-30T16:18:29.992Z,100092.86
2017-08-30T16:21:04.833Z,100091.27
2017-08-30T16:23:39.807Z,100090.02
2017-08-30T16:26:14.722Z,100083.44
2017-08-30T16:28:49.528Z,100087.67
2017-08-30T16:31:24.260Z,100089.56
2017-08-30T16:33:59.940Z,100087.08
2017-08-30T16:36:35.183Z,100094.58
2017-08-30T16:39:11.022Z,100098.05
2017-08-30T16:41:45.772Z,100095.20
2017-08-30T16:44:20.635Z,100091.47
2017-08-30T16:46:55.509Z,100084.16
2017-08-30T16:49:30.582Z,100080.49
2017-08-30T16:52:05.088Z,100079.43
2017-08-30T16:54:39.819Z,100077.58
2017-08-30T16:57:14.620Z,100067.86
2017-08-30T16:59:49.518Z,100066.17
2017-08-30T17:02:24.376Z,100055.81
2017-08-30T17:04:59.133Z,100065.45
2017-08-30T17:07:33.943Z,100064.06
2017-08-30T17:10:08.659Z,100064.55
2017-08-30T17:12:43.276Z,100067.45
2017-08-30T17:15:18.112Z,100061.19
2017-08-30T17:17:53.156Z,100061.05
2017-08-30T17:20:28.104Z,100051.97
2017-08-30T17:23:02.827Z,100056.08
2017-08-30T17:25:37.783Z,100060.38
2017-08-30T17:28:12.247Z,100071.25
2017-08-30T17:30:47.412Z,100074.50
2017-08-30T17:33:22.148Z,100070.95
2017-08-30T17:35:57.447Z,100077.28
2017-08-30T17:38:32.271Z,100072.25
2017-08-30T17:41:07.055Z,100067.53
2017-08-30T17:43:42.216Z,100061.44
2017-08-30T17:46:17.324Z,100065.89
2017-08-30T17:48:52.100Z,100067.45
2017-08-30T17:51:27.095Z,100068.41
2017-08-30T17:54:02.105Z,100079.41
2017-08-30T17:56:37.049Z,100076.23
2017-08-30T17:59:11.809Z,100077.80
2017-08-30T18:01:46.740Z,100077.13
2017-08-30T18:04:21.616Z,100072.54
2017-08-30T18:06:57.064Z,100071.97
2017-08-30T18:09:31.549Z,100078.02
2017-08-30T18:12:06.171Z,100084.20
2017-08-30T18:14:40.998Z,100092.91
2017-08-30T18:17:15.824Z,100088.99
2017-08-30T18:19:50.511Z,100080.55
2017-08-30T18:22:25.362Z,100075.48
2017-08-30T18:25:00.969Z,100068.38
2017-08-30T18:27:35.435Z,100078.53
2017-08-30T18:30:10.498Z,100073.00
2017-08-30T18:32:45.501Z,100072.41
2017-08-30T18:35:20.530Z,100077.70
2017-08-30T18:37:55.682Z,100080.17
2017-08-30T18:40:30.414Z,100081.30
2017-08-30T18:43:05.246Z,100086.23
2017-08-30T18:45:40.404Z,100078.13
2017-08-30T18:48:15.632Z,100084.36
2017-08-30T18:50:50.368Z,100093.56
2017-08-30T18:53:25.382Z,100102.48
2017-08-30T18:56:00.397Z,100097.90
2017-08-30T18:58:35.422Z,100109.55
2017-08-30T19:01:10.252Z,100112.63
2017-08-30T19:03:45.047Z,100119.09
2017-08-30T19:06:19.817Z,100125.77
2017-08-30T19:08:54.531Z,100138.73
2017-08-30T19:11:29.250Z,100141.02
2017-08-30T19:14:03.887Z,100138.84
2017-08-30T19:16:39.070Z,100130.34
2017-08-30T19:19:13.928Z,100125.31
2017-08-30T19:21:48.707Z,100121.42
2017-08-30T19:24:23.395Z,100109.34
2017-08-30T19:26:58.373Z,100107.71
2017-08-30T19:29:34.372Z,100113.59
2017-08-30T19:32:09.287Z,100106.47
2017-08-30T19:34:44.049Z,100108.89
2017-08-30T19:37:18.766Z,100114.08
2017-08-30T19:39:53.702Z,100139.42
2017-08-30T19:42:28.421Z,100182.92
2017-08-30T19:45:03.244Z,100156.01
2017-08-30T19:47:38.366Z,100147.58
2017-08-30T19:50:13.544Z,100150.02
2017-08-30T19:52:49.167Z,100149.82
2017-08-30T19:55:24.007Z,100146.75
2017-08-30T19:57:58.953Z,100141.91
2017-08-30T20:00:33.932Z,100149.38
2017-08-30T20:03:08.716Z,100139.89
2017-08-30T20:05:43.586Z,100124.48
2017-08-30T20:08:18.746Z,100135.72
2017-08-30T20:10:53.905Z,100135.17
2017-08-30T20:13:28.587Z,100125.20
2017-08-30T20:16:03.328Z,100121.56
2017-08-30T20:18:38.286Z,100104.00
2017-08-30T20:21:13.117Z,100094.03
2017-08-30T20:23:48.003Z,100091.27
2017-08-30T20:26:22.780Z,100106.05
2017-08-30T20:28:57.851Z,100120.22
2017-08-30T20:31:32.840Z,100134.08
2017-08-30T20:34:07.599Z,100146.72
2017-08-30T20:36:42.424Z,100146.25
2017-08-30T20:39:17.746Z,100140.38
2017-08-30T20:41:52.732Z,100130.73
2017-08-30T20:44:27.484Z,100128.56
2017-08-30T20:47:02.107Z,100154.94
2017-08-30T20:49:36.744Z,100159.04
2017-08-30T20:52:11.862Z,100169.83
2017-08-30T20:54:46.639Z,100169.47
2017-08-30T20:57:21.579Z,100172.85
2017-08-30T20:59:56.797Z,100172.50
2017-08-30T21:02:31.754Z,100179.16
2017-08-30T21:05:06.583Z,100180.85
2017-08-30T21:07:41.511Z,100192.30
2017-08-30T21:10:16.435Z,100196.32
2017-08-30T21:12:51.647Z,100212.34
2017-08-30T21:15:26.192Z,100177.40
2017-08-30T21:18:01.328Z,100163.55
2017-08-30T21:20:36.491Z,100179.58
2017-08-30T21:23:10.930Z,100171.30
2017-08-30T21:25:45.639Z,100187.09
2017-08-30T21:28:20.499Z,100194.06
2017-08-30T21:30:55.221Z,100194.36
2017-08-30T21:33:29.942Z,100185.30
2017-08-30T21:36:04.856Z,100190.61
2017-08-30T21:38:39.680Z,100187.70
2017-08-30T21:41:14.504Z,100176.10
2017-08-30T21:43:49.290Z,100171.66
2017-08-30T21:46:25.101Z,100168.91
2017-08-30T21:49:00.684Z,100170.27
2017-08-30T21:51:35.408Z,100164.64
2017-08-30T21:54:10.299Z,100159.39
2017-08-30T21:56:46.126Z,100156.28
2017-08-30T21:59:20.934Z,100157.88
2017-08-30T22:01:55.658Z,100159.95
2017-08-30T22:04:30.971Z,100146.66
2017-08-30T22:07:05.895Z,100156.38
2017-08-30T22:09:40.698Z,100165.17
2017-08-30T22:12:15.464Z,100175.60
2017-08-30T22:14:50.751Z,100180.52
2017-08-30T22:17:25.726Z,100180.42
2017-08-30T22:20:00.576Z,100177.14
2017-08-30T22:22:35.444Z,100171.63
2017-08-30T22:25:10.343Z,100168.75
2017-08-30T22:27:45.022Z,100169.00
2017-08-30T22:30:19.682Z,100163.94
2017-08-30T22:32:54.407Z,100165.86
2017-08-30T22:35:29.143Z,100175.69
2017-08-30T22:38:03.972Z,100169.98
2017-08-30T22:40:39.370Z,100158.37
2017-08-30T22:43:14.075Z,100157.91
2017-08-30T22:45:49.980Z,100157.08
2017-08-30T22:48:24.874Z,100141.04
2017-08-30T22:50:59.744Z,100143.02
2017-08-30T22:53:34.515Z,100145.98
2017-08-30T22:56:09.262Z,100139.30
2017-08-30T22:58:43.970Z,100152.75
2017-08-30T23:01:18.542Z,100150.12
2017-08-30T23:03:53.319Z,100157.95
2017-08-30T23:06:28.044Z,100166.91
2017-08-30T23:09:02.694Z,100157.80
2017-08-30T23:11:37.599Z,100147.98
2017-08-30T23:14:12.195Z,100144.29
2017-08-30T23:16:46.958Z,100146.41
2017-08-30T23:19:21.821Z,100154.34
2017-08-30T23:21:56.656Z,100149.14
2017-08-30T23:24:31.379Z,100160.81
2017-08-30T23:27:06.712Z,100153.41
2017-08-30T23:29:41.678Z,100160.75
2017-08-30T23:32:16.363Z,100154.77
2017-08-30T23:34:51.366Z,100153.59
2017-08-30T23:37:26.300Z,100154.09
2017-08-30T23:40:01.122Z,100156.49
2017-08-30T23:42:36.087Z,100173.13
2017-08-30T23:45:11.069Z,100168.70
2017-08-30T23:47:45.651Z,100166.05
2017-08-30T23:50:20.686Z,100163.50
2017-08-30T23:52:56.331Z,100175.08
2017-08-30T23:55:31.127Z,100185.22
2017-08-30T23:58:05.874Z,100188.00
